Ieper, Belgium
Current Conditions -  °F | °C
As of 5:25 AM on Thursday 29 Jan 2015 (Local Time) from EBFN Reporting Station
Scattered Clouds Scattered Clouds  
Wind Chill: 30°   Ceiling: Unl
Heat Index: 41°   Visibility: 6mi
Dew Point: 30°   Wind: 29mph
Humidity: 65%   Direction: 260°W
Pressure: 29.35"   Gusts: NA
Location:  50.85°N, 2.89°E
Report Text: EBFN 290425Z 26025KT 9999 FEW034 SCT120 05/M01 Q0994 BLU
Loading
Personal Weather Stations






























Interactive Weather Map New forecast layout! Learn more

10-Day Weather Forecast

Advertisements
Track Severe Weather on mobile